createdAt,value
2023-02-03T00:02:04.936Z,46.56
2023-02-03T00:04:31.355Z,46.70
2023-02-03T00:06:57.762Z,46.11
2023-02-03T00:09:24.128Z,46.68
2023-02-03T00:11:50.592Z,46.58
2023-02-03T00:14:17.041Z,46.49
2023-02-03T00:16:43.459Z,46.82
2023-02-03T00:19:09.963Z,46.46
2023-02-03T00:21:36.346Z,46.67
2023-02-03T00:24:02.724Z,46.51
2023-02-03T00:26:29.107Z,46.56
2023-02-03T00:28:55.475Z,46.48
2023-02-03T00:31:22.052Z,46.36
2023-02-03T00:33:48.554Z,46.50
2023-02-03T00:36:15.811Z,46.22
2023-02-03T00:38:42.191Z,46.59
2023-02-03T00:41:08.607Z,46.44
2023-02-03T00:43:34.998Z,46.21
2023-02-03T00:46:01.497Z,47.60
2023-02-03T00:48:27.928Z,46.34
2023-02-03T00:50:54.304Z,46.34
2023-02-03T00:53:20.678Z,45.84
2023-02-03T00:55:47.048Z,46.33
2023-02-03T00:58:13.412Z,46.82
2023-02-03T01:00:39.785Z,46.33
2023-02-03T01:03:06.189Z,46.51
2023-02-03T01:05:32.593Z,46.20
2023-02-03T01:07:58.942Z,46.36
2023-02-03T01:10:25.593Z,45.96
2023-02-03T01:12:52.129Z,46.46
2023-02-03T01:15:18.604Z,46.47
2023-02-03T01:17:44.959Z,46.33
2023-02-03T01:20:11.345Z,46.38
2023-02-03T01:22:37.702Z,46.29
2023-02-03T01:25:04.125Z,46.15
2023-02-03T01:27:30.502Z,46.31
2023-02-03T01:29:56.884Z,46.24
2023-02-03T01:32:23.309Z,46.40
2023-02-03T01:34:49.647Z,46.31
2023-02-03T01:37:15.990Z,46.24
2023-02-03T01:39:42.374Z,46.24
2023-02-03T01:42:11.532Z,46.26
2023-02-03T01:44:40.756Z,46.56
2023-02-03T01:47:07.159Z,46.30
2023-02-03T01:49:33.503Z,46.77
2023-02-03T01:51:59.889Z,46.52
2023-02-03T01:54:26.237Z,46.12
2023-02-03T01:56:55.417Z,46.71
2023-02-03T01:59:21.787Z,46.49
2023-02-03T02:01:48.230Z,46.52
2023-02-03T02:04:14.613Z,46.22
2023-02-03T02:06:40.986Z,46.55
2023-02-03T02:09:07.403Z,46.62
2023-02-03T02:11:36.594Z,46.79
2023-02-03T02:14:05.776Z,46.71
2023-02-03T02:16:34.926Z,46.57
2023-02-03T02:19:01.357Z,46.26
2023-02-03T02:21:30.507Z,46.78
2023-02-03T02:23:56.849Z,46.51
2023-02-03T02:26:26.010Z,46.57
2023-02-03T02:28:55.146Z,46.70
2023-02-03T02:31:21.592Z,46.71
2023-02-03T02:33:50.783Z,46.29
2023-02-03T02:36:17.156Z,46.58
2023-02-03T02:38:43.476Z,46.45
2023-02-03T02:41:09.859Z,46.61
2023-02-03T02:43:38.995Z,46.41
2023-02-03T02:46:05.387Z,46.34
2023-02-03T02:48:34.551Z,46.28
2023-02-03T02:51:03.682Z,47.46
2023-02-03T02:53:32.840Z,46.22
2023-02-03T02:55:59.167Z,46.62
2023-02-03T02:58:28.329Z,46.13
2023-02-03T03:00:57.477Z,46.29
2023-02-03T03:03:26.687Z,46.86
2023-02-03T03:05:55.833Z,46.52
2023-02-03T03:08:24.989Z,46.37
2023-02-03T03:10:54.147Z,47.02
2023-02-03T03:13:20.509Z,46.23
2023-02-03T03:15:46.960Z,46.21
2023-02-03T03:18:13.342Z,46.38
2023-02-03T03:20:39.674Z,46.11
2023-02-03T03:23:06.021Z,46.44
2023-02-03T03:25:32.374Z,46.42
2023-02-03T03:28:01.600Z,46.48
2023-02-03T03:30:30.820Z,46.53
2023-02-03T03:32:57.146Z,46.35
2023-02-03T03:35:23.491Z,46.11
2023-02-03T03:37:52.614Z,46.37
2023-02-03T03:40:19.016Z,45.79
2023-02-03T03:42:48.156Z,46.13
2023-02-03T03:45:14.686Z,46.39
2023-02-03T03:47:43.835Z,46.17
2023-02-03T03:50:10.173Z,46.68
2023-02-03T03:52:39.331Z,45.89
2023-02-03T03:55:05.669Z,46.01
2023-02-03T03:57:34.811Z,46.23
2023-02-03T04:00:03.946Z,45.83
2023-02-03T04:02:33.229Z,46.00
2023-02-03T04:05:02.430Z,46.12
2023-02-03T04:07:28.774Z,45.98
2023-02-03T04:09:57.911Z,45.91
2023-02-03T04:12:27.055Z,46.32
2023-02-03T04:14:56.182Z,46.22
2023-02-03T04:17:25.529Z,46.19
2023-02-03T04:19:54.680Z,46.01
2023-02-03T04:22:21.059Z,46.01
2023-02-03T04:24:47.402Z,46.41
2023-02-03T04:27:13.757Z,46.20
2023-02-03T04:29:42.959Z,46.07
2023-02-03T04:32:09.340Z,46.25
2023-02-03T04:34:38.510Z,46.30
2023-02-03T04:37:04.871Z,46.16
2023-02-03T04:39:34.014Z,46.23
2023-02-03T04:42:00.404Z,46.28
2023-02-03T04:44:26.749Z,45.91
2023-02-03T04:46:53.165Z,46.13
2023-02-03T04:49:19.493Z,46.28
2023-02-03T04:51:45.819Z,45.94
2023-02-03T04:54:12.202Z,45.46
2023-02-03T04:56:38.580Z,46.19
2023-02-03T04:59:05.018Z,46.23
2023-02-03T05:01:31.365Z,46.00
2023-02-03T05:03:57.735Z,46.40
2023-02-03T05:06:26.870Z,46.56
2023-02-03T05:08:53.203Z,45.74
2023-02-03T05:11:19.589Z,46.26
2023-02-03T05:13:45.966Z,45.65
2023-02-03T05:16:12.409Z,45.91
2023-02-03T05:18:38.836Z,46.01
2023-02-03T05:21:05.214Z,45.99
2023-02-03T05:23:31.621Z,45.89
2023-02-03T05:25:57.962Z,46.54
2023-02-03T05:28:24.373Z,45.99
2023-02-03T05:30:53.572Z,45.91
2023-02-03T05:33:20.259Z,45.73
2023-02-03T05:35:46.699Z,46.11
2023-02-03T05:38:13.069Z,46.11
2023-02-03T05:40:39.428Z,46.43
2023-02-03T05:43:05.872Z,45.89
2023-02-03T05:45:32.245Z,46.17
2023-02-03T05:47:58.638Z,45.90
2023-02-03T05:50:25.212Z,46.45
2023-02-03T05:52:51.727Z,45.97
2023-02-03T05:55:18.099Z,46.13
2023-02-03T05:57:44.441Z,45.96
2023-02-03T06:00:10.868Z,46.04
2023-02-03T06:02:37.257Z,46.77
2023-02-03T06:05:03.635Z,45.89
2023-02-03T06:07:29.991Z,46.11
2023-02-03T06:09:59.156Z,46.06
2023-02-03T06:12:28.159Z,46.42
2023-02-03T06:14:57.457Z,46.49
2023-02-03T06:17:23.832Z,46.51
2023-02-03T06:19:50.691Z,46.79
2023-02-03T06:22:19.825Z,46.87
2023-02-03T06:24:46.154Z,47.22
2023-02-03T06:27:12.549Z,47.26
2023-02-03T06:29:41.690Z,47.42
2023-02-03T06:32:10.831Z,46.90
2023-02-03T06:34:37.203Z,46.42
2023-02-03T06:37:03.595Z,45.89
2023-02-03T06:39:30.072Z,45.88
2023-02-03T06:41:57.437Z,45.77
2023-02-03T06:44:24.808Z,46.53
2023-02-03T06:46:51.252Z,45.41
2023-02-03T06:49:17.676Z,45.32
2023-02-03T06:51:44.934Z,45.60
2023-02-03T06:54:11.459Z,45.63
2023-02-03T06:56:40.657Z,46.02
2023-02-03T06:59:07.243Z,45.50
2023-02-03T07:01:33.793Z,45.93
2023-02-03T07:04:00.309Z,46.22
2023-02-03T07:06:27.610Z,45.83
2023-02-03T07:08:54.904Z,46.46
2023-02-03T07:11:24.105Z,45.63
2023-02-03T07:13:52.401Z,45.69
2023-02-03T07:16:18.857Z,46.01
2023-02-03T07:18:47.960Z,45.59
2023-02-03T07:21:14.834Z,45.98
2023-02-03T07:23:41.305Z,46.04
2023-02-03T07:26:10.496Z,45.53
2023-02-03T07:28:37.039Z,45.88
2023-02-03T07:31:05.511Z,45.37
2023-02-03T07:33:32.078Z,45.83
2023-02-03T07:35:58.913Z,46.16
2023-02-03T07:38:25.352Z,45.52
2023-02-03T07:40:51.855Z,46.12
2023-02-03T07:43:20.302Z,45.67
2023-02-03T07:45:46.725Z,45.69
2023-02-03T07:48:16.710Z,45.61
2023-02-03T07:50:43.116Z,45.54
2023-02-03T07:53:13.335Z,45.63
2023-02-03T07:55:41.940Z,44.90
2023-02-03T07:58:10.475Z,45.75
2023-02-03T08:00:40.014Z,46.10
2023-02-03T08:03:08.675Z,45.63
2023-02-03T08:05:36.009Z,45.85
2023-02-03T08:08:03.353Z,45.70
2023-02-03T08:10:30.896Z,45.67
2023-02-03T08:12:58.406Z,45.96
2023-02-03T08:15:25.780Z,45.58
2023-02-03T08:17:52.249Z,45.76
2023-02-03T08:20:18.770Z,45.50
2023-02-03T08:22:46.144Z,45.84
2023-02-03T08:25:14.487Z,46.16
2023-02-03T08:27:41.099Z,45.28
2023-02-03T08:30:07.571Z,46.01
2023-02-03T08:32:34.839Z,45.92
2023-02-03T08:35:02.116Z,45.70
2023-02-03T08:37:30.545Z,46.07
2023-02-03T08:39:57.055Z,45.28
2023-02-03T08:42:23.562Z,45.64
2023-02-03T08:44:50.980Z,46.39
2023-02-03T08:47:17.463Z,45.49
2023-02-03T08:49:44.061Z,45.81
2023-02-03T08:52:10.565Z,45.91
2023-02-03T08:54:37.985Z,45.68
2023-02-03T08:57:05.438Z,45.85
2023-02-03T08:59:32.861Z,46.15
2023-02-03T09:01:59.384Z,45.67
2023-02-03T09:04:25.936Z,46.20
2023-02-03T09:06:52.466Z,45.33
2023-02-03T09:09:18.960Z,45.69
2023-02-03T09:11:45.523Z,46.31
2023-02-03T09:14:12.960Z,45.75
2023-02-03T09:16:39.461Z,45.85
2023-02-03T09:19:06.032Z,46.74
2023-02-03T09:21:40.214Z,45.60
2023-02-03T09:24:09.900Z,45.94
2023-02-03T09:26:37.334Z,46.46
2023-02-03T09:29:03.849Z,45.51
2023-02-03T09:31:31.379Z,46.11
2023-02-03T09:33:58.885Z,46.71
2023-02-03T09:36:25.357Z,45.74
2023-02-03T09:38:52.785Z,46.07
2023-02-03T09:41:19.275Z,45.95
2023-02-03T09:43:46.769Z,45.45
2023-02-03T09:46:14.234Z,46.26
2023-02-03T09:48:41.647Z,45.27
2023-02-03T09:51:08.136Z,45.35
2023-02-03T09:53:35.589Z,45.92
2023-02-03T09:56:03.022Z,44.76
2023-02-03T09:58:29.512Z,45.40
2023-02-03T10:00:56.084Z,46.10
2023-02-03T10:03:22.601Z,45.25
2023-02-03T10:05:49.219Z,46.27
2023-02-03T10:08:15.713Z,46.46
2023-02-03T10:10:43.113Z,46.06
2023-02-03T10:13:10.542Z,46.33
2023-02-03T10:15:37.027Z,46.34
2023-02-03T10:18:04.459Z,46.28
2023-02-03T10:20:30.995Z,46.69
2023-02-03T10:22:57.494Z,47.10
2023-02-03T10:25:23.978Z,46.51
2023-02-03T10:27:50.611Z,47.40
2023-02-03T10:30:17.095Z,45.93
2023-02-03T10:32:44.482Z,45.77
2023-02-03T10:35:10.961Z,45.86
2023-02-03T10:37:37.422Z,45.31
2023-02-03T10:40:04.813Z,45.01
2023-02-03T10:42:31.302Z,45.90
2023-02-03T10:44:58.585Z,44.73
2023-02-03T10:47:25.928Z,45.00
2023-02-03T10:49:53.222Z,44.78
2023-02-03T10:52:20.612Z,44.50
2023-02-03T10:54:47.948Z,44.54
2023-02-03T10:57:14.413Z,44.99
2023-02-03T10:59:41.649Z,44.05
2023-02-03T11:02:08.940Z,43.61
2023-02-03T11:04:35.359Z,43.85
2023-02-03T11:07:02.638Z,43.36
2023-02-03T11:09:29.113Z,43.06
2023-02-03T11:11:56.538Z,43.12
2023-02-03T11:14:23.823Z,43.17
2023-02-03T11:16:51.136Z,43.02
2023-02-03T11:19:18.450Z,42.89
2023-02-03T11:21:45.734Z,42.53
2023-02-03T11:24:12.194Z,42.75
2023-02-03T11:26:38.603Z,42.68
2023-02-03T11:29:07.777Z,42.60
2023-02-03T11:31:34.325Z,42.67
2023-02-03T11:34:02.743Z,42.39
2023-02-03T11:36:30.033Z,42.15
2023-02-03T11:38:57.265Z,42.25
2023-02-03T11:41:24.080Z,42.27
2023-02-03T11:43:50.603Z,42.07
2023-02-03T11:46:17.049Z,42.10
2023-02-03T11:48:43.474Z,42.27
2023-02-03T11:51:10.019Z,42.29
2023-02-03T11:53:51.218Z,42.08
2023-02-03T11:56:22.678Z,42.07
2023-02-03T11:58:51.889Z,42.19
2023-02-03T12:01:18.290Z,42.18
2023-02-03T12:03:47.479Z,41.97
2023-02-03T12:06:13.931Z,41.67
2023-02-03T12:08:42.210Z,41.79
2023-02-03T12:11:08.688Z,41.85
2023-02-03T12:13:35.144Z,41.92
2023-02-03T12:16:03.521Z,41.69
2023-02-03T12:18:30.795Z,41.79
2023-02-03T12:20:57.210Z,41.71
2023-02-03T12:23:23.913Z,41.67
2023-02-03T12:25:51.207Z,41.61
2023-02-03T12:28:32.565Z,41.68
2023-02-03T12:31:01.801Z,41.40
2023-02-03T12:33:28.198Z,41.63
2023-02-03T12:35:54.722Z,41.40
2023-02-03T12:38:21.109Z,41.48
2023-02-03T12:40:49.271Z,41.40
2023-02-03T12:43:15.867Z,41.58
2023-02-03T12:45:42.294Z,41.36
2023-02-03T12:48:08.736Z,41.36
2023-02-03T12:50:35.997Z,41.48
2023-02-03T12:53:02.354Z,41.10
2023-02-03T12:55:28.726Z,41.30
2023-02-03T12:57:55.159Z,41.14
2023-02-03T13:00:21.535Z,41.12
2023-02-03T13:02:47.933Z,41.10
2023-02-03T13:05:15.183Z,41.43
2023-02-03T13:07:41.606Z,41.26
2023-02-03T13:10:07.974Z,41.44
2023-02-03T13:12:35.229Z,41.52
2023-02-03T13:15:01.553Z,41.48
2023-02-03T13:17:27.904Z,41.49
2023-02-03T13:19:54.289Z,41.28
2023-02-03T13:22:21.510Z,41.52
2023-02-03T13:24:47.921Z,41.48
2023-02-03T13:27:14.429Z,41.61
2023-02-03T13:29:40.793Z,41.64
2023-02-03T13:32:07.225Z,41.59
2023-02-03T13:34:35.691Z,41.51
2023-02-03T13:37:03.110Z,41.62
2023-02-03T13:39:29.446Z,41.83
2023-02-03T13:41:55.798Z,41.75
2023-02-03T13:44:22.146Z,41.68
2023-02-03T13:46:48.549Z,42.10
2023-02-03T13:49:14.921Z,41.81
2023-02-03T13:51:41.250Z,41.62
2023-02-03T13:54:07.788Z,41.87
2023-02-03T13:56:34.127Z,41.99
2023-02-03T13:59:00.502Z,41.82
2023-02-03T14:01:26.877Z,41.77
2023-02-03T14:03:53.327Z,41.55
2023-02-03T14:06:19.726Z,42.16
2023-02-03T14:08:46.099Z,41.87
2023-02-03T14:11:12.540Z,41.71
2023-02-03T14:13:38.892Z,41.98
2023-02-03T14:16:05.294Z,41.79
2023-02-03T14:18:31.658Z,41.84
2023-02-03T14:20:58.037Z,42.20
2023-02-03T14:23:24.401Z,41.91
2023-02-03T14:25:50.765Z,42.15
2023-02-03T14:28:17.247Z,41.66
2023-02-03T14:30:43.745Z,41.96
2023-02-03T14:33:10.151Z,42.35
2023-02-03T14:35:36.466Z,42.46
2023-02-03T14:38:02.859Z,42.39
2023-02-03T14:40:29.273Z,42.36
2023-02-03T14:43:04.828Z,42.76
2023-02-03T14:45:35.994Z,42.42
2023-02-03T14:48:02.343Z,42.23
2023-02-03T14:50:28.688Z,42.29
2023-02-03T14:52:55.201Z,42.36
2023-02-03T14:55:21.517Z,42.37
2023-02-03T14:57:47.866Z,42.06
2023-02-03T15:00:14.298Z,42.31
2023-02-03T15:02:40.627Z,42.39
2023-02-03T15:05:07.100Z,42.41
2023-02-03T15:07:33.426Z,42.57
2023-02-03T15:09:59.776Z,42.40
2023-02-03T15:12:26.103Z,42.30
2023-02-03T15:14:52.453Z,42.51
2023-02-03T15:17:18.817Z,42.10
2023-02-03T15:19:46.071Z,42.51
2023-02-03T15:22:13.312Z,42.24
2023-02-03T15:24:39.725Z,42.17
2023-02-03T15:27:06.069Z,42.05
2023-02-03T15:29:32.446Z,42.13
2023-02-03T15:31:58.856Z,42.26
2023-02-03T15:34:25.276Z,42.16
2023-02-03T15:36:51.714Z,42.29
2023-02-03T15:39:18.075Z,42.17
2023-02-03T15:41:44.476Z,42.19
2023-02-03T15:44:10.867Z,42.08
2023-02-03T15:46:37.237Z,42.14
2023-02-03T15:49:03.722Z,42.09
2023-02-03T15:51:30.083Z,42.21
2023-02-03T15:53:56.463Z,42.21
2023-02-03T15:56:22.839Z,42.16
2023-02-03T15:58:50.086Z,42.34
2023-02-03T16:01:18.105Z,41.91
2023-02-03T16:03:44.632Z,41.95
2023-02-03T16:06:11.873Z,41.89
2023-02-03T16:08:38.243Z,42.00
2023-02-03T16:11:04.629Z,42.04
2023-02-03T16:13:31.889Z,41.98
2023-02-03T16:15:58.270Z,42.19
2023-02-03T16:18:24.646Z,42.18
2023-02-03T16:20:51.090Z,42.11
2023-02-03T16:23:17.474Z,42.34
2023-02-03T16:25:43.806Z,42.26
2023-02-03T16:28:10.236Z,42.15
2023-02-03T16:30:36.606Z,42.19
2023-02-03T16:33:03.016Z,42.19
2023-02-03T16:35:32.467Z,42.14
2023-02-03T16:37:58.974Z,42.02
2023-02-03T16:40:26.207Z,42.03
2023-02-03T16:42:52.578Z,42.06
2023-02-03T16:45:19.830Z,42.04
2023-02-03T16:47:47.104Z,41.93
2023-02-03T16:50:13.468Z,42.04
2023-02-03T16:52:42.071Z,42.02
2023-02-03T16:55:08.464Z,41.88
2023-02-03T16:57:34.825Z,42.08
2023-02-03T17:00:04.001Z,41.92
2023-02-03T17:02:33.214Z,42.02
2023-02-03T17:04:59.684Z,41.79
2023-02-03T17:07:27.118Z,41.80
2023-02-03T17:09:54.381Z,41.92
2023-02-03T17:12:20.791Z,41.95
2023-02-03T17:14:47.644Z,41.92
2023-02-03T17:17:14.072Z,41.89
2023-02-03T17:19:40.484Z,42.31
2023-02-03T17:22:06.948Z,42.23
2023-02-03T17:24:33.329Z,42.05
2023-02-03T17:26:59.874Z,42.35
2023-02-03T17:29:29.012Z,42.42
2023-02-03T17:31:56.242Z,43.02
2023-02-03T17:34:22.830Z,42.97
2023-02-03T17:36:49.221Z,43.12
2023-02-03T17:55:29.459Z,44.23
2023-02-03T17:57:55.954Z,44.21
2023-02-03T18:00:22.303Z,44.31
2023-02-03T18:02:48.676Z,44.13
2023-02-03T18:05:15.026Z,44.38
2023-02-03T18:07:41.345Z,45.54
2023-02-03T18:10:07.678Z,44.94
2023-02-03T18:12:34.024Z,45.38
2023-02-03T18:15:00.412Z,45.90
2023-02-03T18:17:26.764Z,46.03
2023-02-03T18:19:56.155Z,45.90
2023-02-03T18:22:22.785Z,45.95
2023-02-03T18:24:49.129Z,46.43
2023-02-03T18:27:15.479Z,46.72
2023-02-03T18:29:41.847Z,46.30
2023-02-03T18:32:08.249Z,46.56
2023-02-03T18:34:34.592Z,46.38
2023-02-03T18:37:00.927Z,45.80
2023-02-03T18:39:27.280Z,45.58
2023-02-03T18:41:53.792Z,45.55
2023-02-03T18:44:20.162Z,45.85
2023-02-03T18:46:46.542Z,45.56
2023-02-03T18:49:12.925Z,45.58
2023-02-03T18:51:39.283Z,45.82
2023-02-03T18:54:05.823Z,45.52
2023-02-03T18:56:35.072Z,45.72
2023-02-03T18:59:01.558Z,45.29
2023-02-03T19:01:27.958Z,45.07
2023-02-03T19:03:54.346Z,45.76
2023-02-03T19:06:21.075Z,45.39
2023-02-03T19:08:47.427Z,45.66
2023-02-03T19:11:13.772Z,45.33
2023-02-03T19:13:40.155Z,45.29
2023-02-03T19:16:06.582Z,45.42
2023-02-03T19:18:32.952Z,45.52
2023-02-03T19:20:59.322Z,45.31
2023-02-03T19:23:25.962Z,45.62
2023-02-03T19:25:52.309Z,45.69
2023-02-03T19:28:29.976Z,45.68
2023-02-03T19:31:02.922Z,45.84
2023-02-03T19:33:33.346Z,45.30
2023-02-03T19:35:59.707Z,45.56
2023-02-03T19:38:26.123Z,46.10
2023-02-03T19:40:52.516Z,45.92
2023-02-03T19:43:18.900Z,45.62
2023-02-03T19:45:45.547Z,45.16
2023-02-03T19:48:11.913Z,45.26
2023-02-03T19:50:38.282Z,45.69
2023-02-03T19:53:04.678Z,45.05
2023-02-03T19:55:31.068Z,45.22
2023-02-03T19:57:57.425Z,45.49
2023-02-03T20:00:23.771Z,45.42
2023-02-03T20:02:50.106Z,45.42
2023-02-03T20:05:17.364Z,44.82
2023-02-03T20:07:44.703Z,44.88
2023-02-03T20:10:11.089Z,45.39
2023-02-03T20:12:37.617Z,44.96
2023-02-03T20:15:04.039Z,45.61
2023-02-03T20:17:30.395Z,45.61
2023-02-03T20:19:56.899Z,45.99
2023-02-03T20:22:23.214Z,45.94
2023-02-03T20:24:49.548Z,45.65
2023-02-03T20:27:15.915Z,45.91
2023-02-03T20:29:42.297Z,46.65
2023-02-03T20:32:08.928Z,45.99
2023-02-03T20:34:35.363Z,46.48
2023-02-03T20:37:01.737Z,46.16
2023-02-03T20:39:28.100Z,45.99
2023-02-03T20:41:54.456Z,46.26
2023-02-03T20:44:21.723Z,46.68
2023-02-03T20:46:48.161Z,46.91
2023-02-03T20:49:15.559Z,46.67
2023-02-03T20:51:41.902Z,47.24
2023-02-03T20:54:08.241Z,47.04
2023-02-03T20:56:34.612Z,47.32
2023-02-03T20:59:00.980Z,47.49
2023-02-03T21:01:27.355Z,47.00
2023-02-03T21:03:55.022Z,47.42
2023-02-03T21:06:21.405Z,47.09
2023-02-03T21:08:47.743Z,46.75
2023-02-03T21:11:14.194Z,46.80
2023-02-03T21:13:40.582Z,46.63
2023-02-03T21:16:07.152Z,46.55
2023-02-03T21:18:33.530Z,46.93
2023-02-03T21:20:59.937Z,46.59
2023-02-03T21:23:29.064Z,46.54
2023-02-03T21:25:55.444Z,46.81
2023-02-03T21:28:21.785Z,46.52
2023-02-03T21:30:48.212Z,46.48
2023-02-03T21:33:14.626Z,47.08
2023-02-03T21:35:40.964Z,46.92
2023-02-03T21:38:07.503Z,47.08
2023-02-03T21:40:33.864Z,47.42
2023-02-03T21:43:00.217Z,47.20
2023-02-03T21:45:26.588Z,46.94
2023-02-03T21:47:52.948Z,47.30
2023-02-03T21:50:19.603Z,46.52
2023-02-03T21:52:45.926Z,47.27
2023-02-03T21:55:12.295Z,47.13
2023-02-03T21:57:38.649Z,46.85
2023-02-03T22:00:04.976Z,46.97
2023-02-03T22:02:31.383Z,47.72
2023-02-03T22:04:57.777Z,46.94
2023-02-03T22:07:24.140Z,47.41
2023-02-03T22:09:50.499Z,47.02
2023-02-03T22:12:16.859Z,46.72
2023-02-03T22:14:43.227Z,46.92
2023-02-03T22:17:09.748Z,46.82
2023-02-03T22:19:36.151Z,46.66
2023-02-03T22:22:02.470Z,47.70
2023-02-03T22:24:28.808Z,47.37
2023-02-03T22:26:55.257Z,47.32
2023-02-03T22:29:21.806Z,47.10
2023-02-03T22:31:48.221Z,46.75
2023-02-03T22:34:14.627Z,46.82
2023-02-03T22:36:41.103Z,46.93
2023-02-03T22:39:07.478Z,46.86
2023-02-03T22:41:33.820Z,46.75
2023-02-03T22:44:00.153Z,46.80
2023-02-03T22:46:26.643Z,46.64
2023-02-03T22:48:53.218Z,46.40
2023-02-03T22:51:19.563Z,46.84
2023-02-03T22:53:45.915Z,46.92
2023-02-03T22:56:12.577Z,46.48
2023-02-03T22:58:38.933Z,46.55
2023-02-03T23:01:05.320Z,46.58
2023-02-03T23:03:31.780Z,46.07
2023-02-03T23:05:58.142Z,46.22
2023-02-03T23:08:24.720Z,46.13
2023-02-03T23:10:51.081Z,46.11
2023-02-03T23:13:17.452Z,46.12
2023-02-03T23:15:43.847Z,45.74
2023-02-03T23:18:10.268Z,46.07
2023-02-03T23:20:36.625Z,46.09
2023-02-03T23:23:02.965Z,46.13
2023-02-03T23:25:29.329Z,46.00
2023-02-03T23:27:55.703Z,45.55
2023-02-03T23:30:22.072Z,46.40
2023-02-03T23:32:48.404Z,45.94
2023-02-03T23:35:14.784Z,46.05
2023-02-03T23:37:41.127Z,46.32
2023-02-03T23:40:07.462Z,45.68
2023-02-03T23:42:33.820Z,46.20
2023-02-03T23:45:00.162Z,46.04
2023-02-03T23:47:26.612Z,45.65
2023-02-03T23:49:52.950Z,45.45
2023-02-03T23:52:19.287Z,45.53
2023-02-03T23:54:45.654Z,46.06
2023-02-03T23:57:12.853Z,45.67
2023-02-03T23:59:39.165Z,45.36
